Time;durP1;ratioP1;P1;durP2;ratioP2;P2;SDS_P1;SDS_P2;PMS_P1;PMS_P2;Temp;Humidity;BMP_temperature;BMP_pressure;BME280_temperature;BME280_humidity;BME280_pressure;Samples;Min_cycle;Max_cycle;Signal;HPM_P1;HPM_P2
2024/02/09 00:01:12;;;;;;;3.17;1.73;;;10.80;99.90;;;;;;4978400;28;20465;-69
2024/02/09 00:03:39;;;;;;;1.73;1.60;;;10.90;99.90;;;;;;4978007;28;20545;-70
2024/02/09 00:06:06;;;;;;;5.60;1.73;;;10.90;99.90;;;;;;4974634;28;20563;-70
2024/02/09 00:08:37;;;;;;;3.87;2.13;;;10.90;99.90;;;;;;4973817;28;20488;-70
2024/02/09 00:11:07;;;;;;;2.30;2.10;;;10.60;99.90;;;;;;4978645;28;20832;-71
2024/02/09 00:13:34;;;;;;;3.53;2.73;;;10.70;99.90;;;;;;4975900;28;20517;-70
2024/02/09 00:16:02;;;;;;;1.47;1.23;;;10.60;99.90;;;;;;4981399;28;20490;-70
2024/02/09 00:18:29;;;;;;;8.83;1.70;;;10.60;99.90;;;;;;4982348;28;20954;-70
2024/02/09 00:20:57;;;;;;;3.37;1.90;;;10.70;99.90;;;;;;4976664;28;20461;-70
2024/02/09 00:23:24;;;;;;;7.50;2.83;;;10.80;99.90;;;;;;4973930;28;20462;-70
2024/02/09 00:25:51;;;;;;;2.60;1.87;;;10.70;99.90;;;;;;4978340;28;20485;-70
2024/02/09 00:28:19;;;;;;;1.97;1.47;;;10.70;99.90;;;;;;4975809;28;20558;-70
2024/02/09 00:30:46;;;;;;;2.00;1.60;;;10.60;99.90;;;;;;4980636;28;20477;-70
2024/02/09 00:33:13;;;;;;;2.20;1.50;;;10.50;99.90;;;;;;4978385;28;21223;-70
2024/02/09 00:35:40;;;;;;;5.10;2.00;;;10.40;99.90;;;;;;4976388;28;20497;-70
2024/02/09 00:38:10;;;;;;;8.20;1.63;;;10.60;99.90;;;;;;4982708;28;20554;-70
2024/02/09 00:40:38;;;;;;;3.70;3.03;;;10.70;99.90;;;;;;4980115;28;20461;-70
2024/02/09 00:43:05;;;;;;;3.10;1.37;;;10.70;99.90;;;;;;4978801;28;20540;-69
2024/02/09 00:45:38;;;;;;;4.60;1.60;;;10.70;99.90;;;;;;4977106;28;20545;-69
2024/02/09 00:48:06;;;;;;;2.73;2.20;;;10.70;99.90;;;;;;4981139;28;20462;-69
2024/02/09 00:50:33;;;;;;;2.83;2.30;;;10.50;99.90;;;;;;4978697;28;20462;-69
2024/02/09 00:53:04;;;;;;;3.53;2.93;;;10.40;99.90;;;;;;4973836;28;20520;-71
2024/02/09 00:55:31;;;;;;;6.73;3.30;;;10.50;99.90;;;;;;4976644;28;21008;-70
2024/02/09 00:57:58;;;;;;;7.93;2.60;;;10.60;99.90;;;;;;4983754;28;20912;-69
2024/02/09 01:00:25;;;;;;;4.03;2.00;;;10.40;99.90;;;;;;4982876;28;20473;-71
2024/02/09 01:02:53;;;;;;;4.20;2.53;;;10.40;99.90;;;;;;4971726;28;20560;-70
2024/02/09 01:05:20;;;;;;;5.00;1.90;;;10.30;99.90;;;;;;4972921;28;20482;-70
2024/02/09 01:07:49;;;;;;;2.27;1.47;;;10.40;99.90;;;;;;4983644;28;20493;-70
2024/02/09 01:10:16;;;;;;;2.27;1.50;;;10.50;99.90;;;;;;4978768;28;20466;-71
2024/02/09 02:45:58;;;;;;;15.00;2.40;;;10.40;99.90;;;;;;4973342;28;20489;-71
2024/02/09 03:04:53;;;;;;;4.87;1.87;;;10.50;99.90;;;;;;4973534;28;20469;-71
2024/02/09 03:07:20;;;;;;;4.17;1.80;;;10.40;99.90;;;;;;4978053;28;20493;-71
2024/02/09 03:09:47;;;;;;;4.10;2.60;;;10.30;99.90;;;;;;4977038;28;20470;-71
2024/02/09 03:12:15;;;;;;;3.20;2.20;;;10.40;99.90;;;;;;4976636;28;20500;-71
2024/02/09 03:14:44;;;;;;;3.10;1.53;;;10.40;99.90;;;;;;4968761;28;20481;-71
2024/02/09 03:17:10;;;;;;;6.80;1.90;;;10.40;99.90;;;;;;4974870;28;20497;-72
2024/02/09 03:19:37;;;;;;;2.03;1.70;;;10.50;99.90;;;;;;4974994;28;20485;-72
2024/02/09 03:22:04;;;;;;;5.87;1.83;;;10.50;99.90;;;;;;4977508;28;20459;-72
2024/02/09 03:24:31;;;;;;;4.07;2.90;;;10.50;99.90;;;;;;4970712;28;20964;-72
2024/02/09 03:26:58;;;;;;;7.13;2.20;;;10.60;99.90;;;;;;4968953;28;20489;-72
2024/02/09 03:29:30;;;;;;;6.07;1.60;;;10.60;99.90;;;;;;4985182;28;20573;-72
2024/02/09 03:31:57;;;;;;;5.30;2.03;;;10.60;99.90;;;;;;4976132;28;21147;-72
2024/02/09 03:34:25;;;;;;;2.50;2.10;;;10.50;99.90;;;;;;4965950;28;20466;-72
2024/02/09 03:36:54;;;;;;;4.40;1.77;;;10.50;99.90;;;;;;4959522;28;21000;-72
2024/02/09 03:39:21;;;;;;;2.97;2.00;;;10.60;99.90;;;;;;4952798;28;20573;-70
2024/02/09 03:41:48;;;;;;;3.93;1.63;;;10.70;99.90;;;;;;4953615;28;20467;-70
2024/02/09 03:44:14;;;;;;;2.90;1.73;;;10.70;99.90;;;;;;4947101;28;20462;-70
2024/02/09 03:46:42;;;;;;;4.50;2.10;;;10.80;99.90;;;;;;4958064;28;20533;-71
2024/02/09 03:49:11;;;;;;;2.30;2.10;;;10.70;99.90;;;;;;4935360;28;20470;-71
2024/02/09 03:51:38;;;;;;;4.20;2.20;;;10.50;99.90;;;;;;4948108;28;20461;-70
2024/02/09 03:54:04;;;;;;;9.43;3.00;;;10.60;99.90;;;;;;4965138;28;20474;-71
2024/02/09 03:56:31;;;;;;;7.00;2.30;;;10.60;99.90;;;;;;4946991;28;20486;-72
2024/02/09 03:58:59;;;;;;;13.27;3.67;;;10.50;99.90;;;;;;4956614;28;20933;-71
2024/02/09 04:01:25;;;;;;;13.57;2.50;;;10.60;99.90;;;;;;4947821;28;20748;-71
2024/02/09 04:03:54;;;;;;;3.60;2.80;;;10.60;99.90;;;;;;4957294;28;20473;-71
2024/02/09 04:06:23;;;;;;;2.77;1.90;;;10.40;99.90;;;;;;4947717;28;20497;-71
2024/02/09 04:08:50;;;;;;;3.00;1.87;;;10.40;99.90;;;;;;4966828;28;20492;-72
2024/02/09 04:11:22;;;;;;;4.60;2.30;;;10.50;99.90;;;;;;4971993;28;20466;-72
2024/02/09 04:13:50;;;;;;;8.97;2.03;;;10.40;99.90;;;;;;4971260;28;20478;-72
2024/02/09 04:16:18;;;;;;;3.57;2.53;;;10.50;99.90;;;;;;4981819;23;20542;-72
2024/02/09 04:18:45;;;;;;;10.37;1.97;;;10.50;99.90;;;;;;4966194;28;20540;-71
2024/02/09 04:21:15;;;;;;;3.93;2.47;;;10.50;99.90;;;;;;4964238;28;20462;-71
2024/02/09 04:23:41;;;;;;;2.60;2.10;;;10.50;99.90;;;;;;4971867;28;20466;-71
2024/02/09 04:26:08;;;;;;;8.53;2.30;;;10.50;99.90;;;;;;4960172;28;20487;-71
2024/02/09 04:28:35;;;;;;;8.10;1.37;;;10.40;99.90;;;;;;4948311;28;20473;-71
2024/02/09 04:31:02;;;;;;;2.20;1.53;;;10.50;99.90;;;;;;4950052;28;20478;-71
2024/02/09 04:33:31;;;;;;;4.43;1.97;;;10.50;99.90;;;;;;4951157;28;20490;-70
2024/02/09 04:35:58;;;;;;;5.90;1.73;;;10.60;99.90;;;;;;4958894;28;20569;-70
2024/02/09 04:38:26;;;;;;;1.30;1.17;;;10.50;99.90;;;;;;4952689;28;20474;-70
2024/02/09 04:40:55;;;;;;;3.60;1.80;;;10.50;99.90;;;;;;4953186;28;20458;-71
2024/02/09 04:43:23;;;;;;;7.00;1.47;;;10.50;99.90;;;;;;4956552;28;21051;-70
2024/02/09 04:45:50;;;;;;;8.40;2.03;;;10.50;99.90;;;;;;4959829;28;20875;-70
2024/02/09 04:48:17;;;;;;;1.53;1.43;;;10.60;99.90;;;;;;4956712;28;20883;-70
2024/02/09 04:50:43;;;;;;;2.00;1.23;;;10.50;99.90;;;;;;4959077;28;20471;-72
2024/02/09 04:53:11;;;;;;;9.83;1.37;;;10.50;99.90;;;;;;4962288;28;20475;-70
2024/02/09 04:55:40;;;;;;;3.60;3.30;;;10.50;99.90;;;;;;4960551;28;20498;-71
2024/02/09 04:58:07;;;;;;;2.67;2.43;;;10.30;99.90;;;;;;4963088;28;21163;-71
2024/02/09 05:00:35;;;;;;;1.87;1.67;;;10.30;99.90;;;;;;4960861;28;20538;-71
2024/02/09 05:03:03;;;;;;;8.40;1.83;;;10.40;99.90;;;;;;4963570;28;20455;-71
2024/02/09 05:05:33;;;;;;;1.43;1.33;;;10.50;99.90;;;;;;4964997;28;20498;-70
2024/02/09 05:08:00;;;;;;;1.77;1.10;;;10.50;99.90;;;;;;4962537;28;20495;-70
2024/02/09 05:10:27;;;;;;;5.67;1.60;;;10.50;99.90;;;;;;4962707;28;20478;-71
2024/02/09 05:12:56;;;;;;;5.33;1.70;;;10.40;99.90;;;;;;4953217;28;20483;-71
2024/02/09 05:15:23;;;;;;;1.37;1.27;;;10.40;99.90;;;;;;4955388;28;20997;-71
2024/02/09 05:17:50;;;;;;;2.50;2.17;;;10.50;99.90;;;;;;4954012;28;20950;-71
2024/02/09 05:20:16;;;;;;;4.50;1.97;;;10.50;99.90;;;;;;4957601;28;20477;-71
2024/02/09 05:22:46;;;;;;;4.07;1.90;;;10.50;99.90;;;;;;4956116;28;20455;-71
2024/02/09 05:25:13;;;;;;;3.60;1.80;;;10.50;99.90;;;;;;4943659;28;20460;-70
2024/02/09 05:27:40;;;;;;;2.43;1.77;;;10.50;99.90;;;;;;4951692;28;20474;-71
2024/02/09 05:30:09;;;;;;;1.30;1.00;;;10.60;99.90;;;;;;4948531;28;20498;-72
2024/02/09 05:32:37;;;;;;;4.90;1.93;;;10.60;99.90;;;;;;4951864;28;21107;-72
2024/02/09 05:35:06;;;;;;;0.90;0.73;;;10.60;99.90;;;;;;4953587;28;20855;-72
2024/02/09 05:37:33;;;;;;;1.73;1.07;;;10.70;99.90;;;;;;4966992;28;20474;-72
2024/02/09 05:40:00;;;;;;;2.60;1.10;;;10.70;99.90;;;;;;4961801;28;20523;-72
2024/02/09 05:42:27;;;;;;;3.67;1.47;;;10.50;99.90;;;;;;4954660;28;20977;-72
2024/02/09 05:44:54;;;;;;;1.90;1.23;;;10.50;99.90;;;;;;4957536;28;20470;-72
2024/02/09 05:47:22;;;;;;;3.13;0.93;;;10.40;99.90;;;;;;4957935;28;21008;-72
2024/02/09 05:49:51;;;;;;;1.20;1.10;;;10.60;99.90;;;;;;4962347;28;21090;-72
2024/02/09 05:52:18;;;;;;;1.83;0.80;;;10.70;99.90;;;;;;4955436;28;20467;-72
2024/02/09 05:54:44;;;;;;;1.17;1.03;;;10.70;99.90;;;;;;4955880;28;20511;-71
2024/02/09 05:57:11;;;;;;;1.63;1.53;;;10.70;99.90;;;;;;4955913;28;20490;-72
2024/02/09 05:59:39;;;;;;;1.60;1.20;;;10.70;99.90;;;;;;4965745;28;20466;-72
2024/02/09 06:02:05;;;;;;;1.50;1.37;;;10.70;99.90;;;;;;4957552;28;20545;-72
2024/02/09 06:04:35;;;;;;;2.33;1.13;;;10.60;99.90;;;;;;4954399;28;20460;-72
2024/02/09 06:07:02;;;;;;;3.53;1.20;;;10.70;99.90;;;;;;4963893;28;21024;-73
2024/02/09 06:09:29;;;;;;;1.20;1.00;;;10.80;99.90;;;;;;4964833;28;20458;-71
2024/02/09 06:11:57;;;;;;;5.17;1.47;;;10.80;99.90;;;;;;4960572;28;20463;-71
2024/02/09 06:14:24;;;;;;;1.00;0.90;;;10.80;99.90;;;;;;4961719;28;20487;-71
2024/02/09 06:16:51;;;;;;;3.70;1.20;;;10.70;99.90;;;;;;4958550;28;20498;-71
2024/02/09 06:19:20;;;;;;;1.10;0.90;;;10.80;99.90;;;;;;4966380;28;20459;-71
2024/02/09 06:21:48;;;;;;;1.30;1.07;;;10.70;99.90;;;;;;4961349;28;20478;-70
2024/02/09 06:24:15;;;;;;;1.10;0.83;;;10.70;99.90;;;;;;4958223;28;20464;-71
2024/02/09 06:26:42;;;;;;;9.63;1.27;;;10.80;99.90;;;;;;4957352;28;20481;-72
2024/02/09 06:29:10;;;;;;;1.37;1.03;;;10.80;99.90;;;;;;4959477;28;20474;-71
2024/02/09 06:31:42;;;;;;;0.80;0.60;;;10.80;99.90;;;;;;4955664;28;20949;-71
2024/02/09 06:34:08;;;;;;;2.20;1.57;;;10.90;99.90;;;;;;4960172;28;20494;-71
2024/02/09 06:36:35;;;;;;;1.97;1.27;;;10.80;99.90;;;;;;4958800;28;20486;-72
2024/02/09 06:39:03;;;;;;;1.77;0.77;;;10.80;99.90;;;;;;4965296;28;20463;-72
2024/02/09 06:41:30;;;;;;;1.30;1.10;;;10.80;99.90;;;;;;4961464;28;20463;-71
2024/02/09 06:43:58;;;;;;;0.93;0.70;;;10.70;99.90;;;;;;4959598;28;20459;-71
2024/02/09 06:46:25;;;;;;;2.27;1.33;;;10.70;99.90;;;;;;4958796;28;20834;-71
2024/02/09 06:48:56;;;;;;;1.27;1.00;;;10.70;99.90;;;;;;4963103;28;20472;-71
2024/02/09 06:51:23;;;;;;;4.17;2.60;;;10.70;99.90;;;;;;4962006;28;20493;-71
2024/02/09 06:53:50;;;;;;;2.13;1.40;;;10.80;99.90;;;;;;4957421;28;20489;-71
2024/02/09 06:56:21;;;;;;;1.20;0.90;;;10.90;99.90;;;;;;4959742;28;20483;-71
2024/02/09 06:58:50;;;;;;;1.50;1.40;;;10.90;99.90;;;;;;4964045;28;20463;-71
2024/02/09 07:01:19;;;;;;;1.23;1.10;;;10.90;99.90;;;;;;4959141;28;20463;-71
2024/02/09 07:03:46;;;;;;;2.07;1.43;;;11.00;99.90;;;;;;4960071;28;20491;-71
2024/02/09 07:06:12;;;;;;;4.43;2.23;;;11.10;99.90;;;;;;4958948;28;20529;-71
2024/02/09 07:08:40;;;;;;;5.27;1.20;;;11.10;99.90;;;;;;4960587;28;20471;-70
2024/02/09 07:11:11;;;;;;;1.00;0.90;;;10.90;99.90;;;;;;4969056;28;20479;-71
2024/02/09 07:13:39;;;;;;;2.03;1.70;;;10.90;99.90;;;;;;4961812;28;20852;-71
2024/02/09 07:16:07;;;;;;;1.20;1.00;;;10.90;99.90;;;;;;4958953;28;20503;-70
2024/02/09 07:18:38;;;;;;;2.93;1.00;;;11.00;99.90;;;;;;4957798;28;20466;-71
2024/02/09 07:21:05;;;;;;;5.80;1.47;;;11.00;99.90;;;;;;4959946;28;20467;-71
2024/02/09 07:23:32;;;;;;;1.53;1.10;;;11.00;99.90;;;;;;4953695;28;20467;-71
2024/02/09 07:25:59;;;;;;;1.30;1.10;;;10.90;99.90;;;;;;4955458;28;20487;-74
2024/02/09 07:28:25;;;;;;;1.63;1.13;;;10.90;99.90;;;;;;4962073;28;20455;-72
2024/02/09 07:30:55;;;;;;;0.90;0.70;;;10.90;99.90;;;;;;4963545;28;20466;-73
2024/02/09 07:33:22;;;;;;;1.80;1.13;;;11.10;99.90;;;;;;4964077;28;20495;-73
2024/02/09 07:35:49;;;;;;;2.07;1.07;;;10.90;99.90;;;;;;4961579;28;20542;-73
2024/02/09 07:38:15;;;;;;;1.60;1.50;;;10.90;99.90;;;;;;4964010;28;20480;-74
2024/02/09 07:40:42;;;;;;;1.00;0.83;;;11.00;99.90;;;;;;4952330;28;20645;-74
2024/02/09 07:43:10;;;;;;;1.40;1.10;;;11.10;99.90;;;;;;4957369;28;20550;-74
2024/02/09 07:45:37;;;;;;;6.53;1.67;;;11.20;99.90;;;;;;4957530;28;20487;-73
2024/02/09 07:48:05;;;;;;;3.13;1.13;;;11.20;99.90;;;;;;4961167;28;20467;-73
2024/02/09 07:50:34;;;;;;;1.20;0.93;;;11.30;99.90;;;;;;4962041;28;20471;-73
2024/02/09 07:53:01;;;;;;;1.13;0.80;;;11.30;99.90;;;;;;4961288;28;20466;-73
2024/02/09 07:55:28;;;;;;;1.73;1.13;;;11.30;99.90;;;;;;4962636;28;20495;-73
2024/02/09 07:57:55;;;;;;;1.10;0.77;;;11.30;99.90;;;;;;4962990;28;20856;-73
2024/02/09 08:00:23;;;;;;;6.60;1.30;;;11.30;99.90;;;;;;4957858;28;20559;-73
2024/02/09 08:02:50;;;;;;;1.30;1.10;;;11.30;99.90;;;;;;4956954;28;20496;-73
2024/02/09 08:05:18;;;;;;;1.60;1.27;;;11.40;99.90;;;;;;4958442;28;20472;-74
2024/02/09 08:07:46;;;;;;;1.53;1.17;;;11.40;99.90;;;;;;4966581;28;20462;-72
2024/02/09 08:10:13;;;;;;;1.20;1.03;;;11.30;99.90;;;;;;4971749;28;20459;-74
2024/02/09 08:12:42;;;;;;;1.73;1.33;;;11.30;99.90;;;;;;4958466;28;20471;-73
2024/02/09 08:15:10;;;;;;;1.30;0.80;;;11.30;99.90;;;;;;4967228;28;20486;-74
2024/02/09 08:17:38;;;;;;;1.10;0.90;;;11.30;99.90;;;;;;5006560;23;20456;-70
2024/02/09 08:20:06;;;;;;;1.10;0.87;;;11.30;99.90;;;;;;4976354;28;20479;-71
2024/02/09 08:22:34;;;;;;;1.77;1.50;;;11.30;99.90;;;;;;4976525;28;21305;-71
2024/02/09 08:25:01;;;;;;;1.30;1.00;;;11.30;99.90;;;;;;4969363;28;20451;-72
2024/02/09 08:27:28;;;;;;;2.20;1.00;;;11.20;99.90;;;;;;4974773;28;20459;-71
2024/02/09 08:29:56;;;;;;;1.20;0.80;;;11.20;99.90;;;;;;4976632;28;21190;-71
2024/02/09 08:32:25;;;;;;;1.10;0.80;;;11.20;99.90;;;;;;4979545;28;20493;-71
2024/02/09 08:34:51;;;;;;;2.27;1.57;;;11.10;99.90;;;;;;4971912;28;20482;-71
2024/02/09 08:37:19;;;;;;;1.00;0.80;;;11.20;99.90;;;;;;4978656;28;20849;-72
2024/02/09 08:39:49;;;;;;;1.10;0.93;;;11.20;99.90;;;;;;4979726;28;20465;-72
2024/02/09 08:42:16;;;;;;;1.00;0.80;;;11.20;99.90;;;;;;4967951;28;20475;-72
2024/02/09 08:44:42;;;;;;;2.27;1.27;;;11.20;99.90;;;;;;4970951;28;20465;-72
2024/02/09 08:47:10;;;;;;;1.30;1.10;;;11.30;99.90;;;;;;4975317;28;20483;-72
2024/02/09 08:49:37;;;;;;;3.10;1.60;;;11.20;99.90;;;;;;4976598;28;20450;-71
2024/02/09 08:52:05;;;;;;;2.90;1.63;;;11.10;99.90;;;;;;4970099;28;20494;-73
2024/02/09 08:54:32;;;;;;;1.87;1.20;;;11.10;99.90;;;;;;4976126;28;21009;-72
2024/02/09 08:57:00;;;;;;;1.63;1.30;;;11.10;99.90;;;;;;4972233;28;20507;-72
2024/02/09 08:59:27;;;;;;;1.80;1.40;;;11.10;99.90;;;;;;4982344;28;20593;-72
2024/02/09 09:01:54;;;;;;;9.03;1.53;;;11.20;99.90;;;;;;4969453;28;20463;-72
2024/02/09 09:04:21;;;;;;;1.30;1.10;;;11.10;99.90;;;;;;4975423;28;20467;-72
2024/02/09 09:06:48;;;;;;;1.00;0.80;;;11.10;99.90;;;;;;4974090;28;20934;-72
2024/02/09 09:09:15;;;;;;;1.20;0.93;;;11.10;99.90;;;;;;4980944;28;20956;-72
2024/02/09 09:11:42;;;;;;;2.13;1.90;;;11.10;99.90;;;;;;4980246;28;20552;-73
2024/02/09 09:14:11;;;;;;;1.67;1.30;;;11.00;99.90;;;;;;4972403;28;20573;-72
2024/02/09 09:16:38;;;;;;;1.83;1.50;;;11.10;99.90;;;;;;4974910;28;20517;-72
2024/02/09 09:19:06;;;;;;;2.87;1.13;;;11.20;99.90;;;;;;4969578;28;20463;-73
2024/02/09 09:21:33;;;;;;;4.73;1.40;;;11.30;99.90;;;;;;4969770;28;20466;-72
2024/02/09 09:24:00;;;;;;;3.80;2.40;;;11.50;99.90;;;;;;4970760;28;20486;-72
2024/02/09 09:26:28;;;;;;;2.60;1.27;;;11.50;99.90;;;;;;4971244;28;20482;-72
2024/02/09 09:28:56;;;;;;;0.90;0.70;;;11.60;99.90;;;;;;4967201;28;20529;-72
2024/02/09 09:31:25;;;;;;;1.83;1.03;;;11.60;99.90;;;;;;4972061;28;20463;-72
2024/02/09 09:33:52;;;;;;;1.57;1.47;;;11.60;99.90;;;;;;4975532;28;20478;-72
2024/02/09 09:36:19;;;;;;;3.70;2.20;;;11.60;99.90;;;;;;4978693;28;20497;-71
2024/02/09 09:38:46;;;;;;;1.50;1.20;;;11.60;99.90;;;;;;4980550;28;20982;-71
2024/02/09 09:41:13;;;;;;;1.33;1.23;;;11.80;99.90;;;;;;4970895;28;20467;-71
2024/02/09 09:43:40;;;;;;;1.40;1.30;;;11.90;99.90;;;;;;4974877;28;20549;-72
2024/02/09 09:46:09;;;;;;;3.10;1.03;;;11.90;99.90;;;;;;4973814;28;20488;-73
2024/02/09 09:48:38;;;;;;;1.73;1.30;;;12.00;99.90;;;;;;4980323;28;20537;-74
2024/02/09 09:51:06;;;;;;;1.70;1.20;;;12.20;99.90;;;;;;4970116;28;21029;-73
2024/02/09 09:53:39;;;;;;;1.33;1.17;;;12.00;99.90;;;;;;4970477;28;20466;-73
2024/02/09 09:56:08;;;;;;;2.63;2.43;;;12.20;99.90;;;;;;4972068;28;21015;-73
2024/02/09 09:58:36;;;;;;;2.90;1.47;;;12.20;99.90;;;;;;4969188;28;20463;-73
2024/02/09 10:01:05;;;;;;;2.30;1.10;;;12.30;99.90;;;;;;4972268;28;20521;-72
2024/02/09 10:03:32;;;;;;;2.40;0.87;;;12.40;99.90;;;;;;4970544;28;20536;-71
2024/02/09 10:06:01;;;;;;;1.57;1.20;;;12.40;99.90;;;;;;4968613;28;20494;-73
2024/02/09 10:08:28;;;;;;;3.07;1.47;;;12.50;99.90;;;;;;4976716;28;20469;-72
2024/02/09 10:10:56;;;;;;;1.37;0.80;;;12.60;99.90;;;;;;4971801;28;20459;-72
2024/02/09 10:13:23;;;;;;;82.80;2.87;;;12.70;99.90;;;;;;4974662;28;20471;-72
2024/02/09 10:15:52;;;;;;;4.07;1.53;;;12.80;99.90;;;;;;4970613;28;20599;-72
2024/02/09 10:18:19;;;;;;;1.67;1.20;;;12.70;99.90;;;;;;4968411;28;20474;-74
2024/02/09 10:20:47;;;;;;;1.50;1.10;;;12.70;99.90;;;;;;4967020;28;20462;-73
2024/02/09 10:23:15;;;;;;;1.33;1.17;;;12.70;99.90;;;;;;4968683;28;21302;-73
2024/02/09 10:25:43;;;;;;;1.67;1.20;;;12.80;99.90;;;;;;4968520;28;20474;-72
2024/02/09 10:28:12;;;;;;;4.00;1.30;;;13.00;99.90;;;;;;4967942;28;20469;-71
2024/02/09 10:30:39;;;;;;;1.30;1.00;;;13.20;99.90;;;;;;4970105;28;20502;-72
2024/02/09 10:33:06;;;;;;;1.70;1.17;;;13.40;99.90;;;;;;4974294;28;20568;-72
2024/02/09 10:35:36;;;;;;;5.97;1.47;;;13.50;99.90;;;;;;4965351;28;20490;-71
2024/02/09 10:38:03;;;;;;;2.20;1.60;;;13.50;99.90;;;;;;4968698;28;21186;-73
2024/02/09 10:40:33;;;;;;;1.33;1.00;;;13.60;99.90;;;;;;4966342;28;20478;-72
2024/02/09 10:43:04;;;;;;;1.47;1.17;;;13.70;99.90;;;;;;4978431;28;20569;-72
2024/02/09 10:45:32;;;;;;;2.30;1.70;;;13.80;99.90;;;;;;4974113;28;20479;-72
2024/02/09 10:48:00;;;;;;;2.67;1.03;;;13.90;99.90;;;;;;4982385;28;20576;-72
2024/02/09 10:50:29;;;;;;;2.80;1.00;;;13.70;99.90;;;;;;4971261;28;20483;-72
2024/02/09 10:53:00;;;;;;;2.93;1.50;;;13.80;99.90;;;;;;4972325;28;20467;-72
2024/02/09 10:55:34;;;;;;;2.63;1.20;;;14.00;99.90;;;;;;4971391;28;20858;-72
2024/02/09 10:58:04;;;;;;;1.70;1.10;;;14.00;99.90;;;;;;4971412;28;20537;-71
2024/02/09 11:00:32;;;;;;;1.10;0.90;;;14.00;99.90;;;;;;4968246;28;20997;-71
2024/02/09 11:02:58;;;;;;;1.23;0.97;;;14.20;99.90;;;;;;4969509;28;20458;-71
2024/02/09 11:05:26;;;;;;;9.63;3.40;;;14.50;99.90;;;;;;4972346;28;20474;-71
2024/02/09 11:07:53;;;;;;;18.67;2.07;;;15.20;99.90;;;;;;4971636;28;20459;-71
2024/02/09 11:10:20;;;;;;;3.70;1.60;;;15.80;99.90;;;;;;4963824;28;20458;-73
2024/02/09 11:12:58;;;;;;;1.53;0.93;;;16.20;99.90;;;;;;4971480;28;20463;-72
2024/02/09 11:15:25;;;;;;;2.17;1.30;;;16.00;99.90;;;;;;4964762;28;20501;-72
2024/02/09 11:17:52;;;;;;;1.53;1.00;;;16.10;99.90;;;;;;4969632;28;20470;-72
2024/02/09 11:20:19;;;;;;;1.13;0.83;;;15.90;99.90;;;;;;4966591;28;20966;-72
2024/02/09 11:22:47;;;;;;;1.00;0.80;;;15.80;99.90;;;;;;4969156;28;20466;-72
2024/02/09 11:25:16;;;;;;;1.47;1.37;;;16.00;99.90;;;;;;4964769;28;20557;-72
2024/02/09 11:27:47;;;;;;;2.27;1.20;;;15.80;99.90;;;;;;4963777;28;20463;-72
2024/02/09 11:30:17;;;;;;;1.50;1.40;;;16.20;99.90;;;;;;4955708;28;20534;-72
2024/02/09 11:32:46;;;;;;;1.00;0.90;;;16.30;99.90;;;;;;4962173;28;20566;-72
2024/02/09 11:35:13;;;;;;;1.50;1.30;;;16.00;99.90;;;;;;4969806;28;20499;-71
2024/02/09 11:37:43;;;;;;;1.90;1.00;;;15.40;99.90;;;;;;4969189;28;20873;-72
2024/02/09 11:40:11;;;;;;;1.97;1.10;;;15.00;99.90;;;;;;4971664;28;20517;-72
2024/02/09 11:42:38;;;;;;;3.57;1.00;;;14.80;99.90;;;;;;4970818;28;20832;-72
2024/02/09 11:45:09;;;;;;;2.00;1.30;;;14.70;99.90;;;;;;4969908;28;20466;-72
2024/02/09 11:47:38;;;;;;;1.60;1.13;;;14.60;99.90;;;;;;4967680;28;20462;-72
2024/02/09 11:50:07;;;;;;;2.40;1.83;;;14.60;99.90;;;;;;4969896;28;20525;-72
2024/02/09 11:52:35;;;;;;;2.70;1.30;;;14.40;99.90;;;;;;4976849;28;20467;-72
2024/02/09 11:55:03;;;;;;;1.30;1.20;;;14.40;99.90;;;;;;4979149;28;20482;-72
2024/02/09 11:57:30;;;;;;;2.13;1.43;;;14.40;99.90;;;;;;4978425;28;20471;-72
2024/02/09 11:59:58;;;;;;;2.03;1.27;;;14.40;99.90;;;;;;4973087;28;20464;-72
2024/02/09 12:02:25;;;;;;;2.53;2.20;;;14.40;99.90;;;;;;4972723;28;20462;-71
2024/02/09 12:04:53;;;;;;;1.50;1.20;;;14.40;99.90;;;;;;4968723;28;20463;-71
2024/02/09 12:07:21;;;;;;;1.40;1.20;;;14.30;99.90;;;;;;4966710;28;20485;-72
2024/02/09 12:09:50;;;;;;;4.40;1.60;;;14.30;99.90;;;;;;4968558;28;20477;-72
2024/02/09 12:12:19;;;;;;;5.83;1.87;;;14.40;99.90;;;;;;4973712;28;20851;-72
2024/02/09 12:14:46;;;;;;;1.50;1.23;;;14.20;99.90;;;;;;4969034;28;20545;-72
2024/02/09 12:17:13;;;;;;;2.10;1.80;;;14.20;99.90;;;;;;4964036;28;20874;-73
2024/02/09 12:19:42;;;;;;;1.67;1.30;;;14.20;99.90;;;;;;4970209;28;20466;-73
2024/02/09 12:22:10;;;;;;;1.20;1.03;;;14.10;99.90;;;;;;4969895;28;20474;-72
2024/02/09 12:24:38;;;;;;;2.17;1.57;;;14.10;99.90;;;;;;4971515;28;20474;-71
2024/02/09 12:27:14;;;;;;;1.60;1.30;;;14.10;99.90;;;;;;4963107;28;20498;-72
2024/02/09 12:29:41;;;;;;;4.43;1.57;;;14.10;99.90;;;;;;4969669;28;20473;-71
2024/02/09 12:32:09;;;;;;;2.73;2.17;;;14.00;99.90;;;;;;4974433;28;20466;-72
2024/02/09 12:34:43;;;;;;;1.80;1.67;;;14.10;99.90;;;;;;4979326;28;20584;-72
2024/02/09 12:37:15;;;;;;;1.93;1.73;;;13.80;99.90;;;;;;4973783;28;20487;-72
2024/02/09 12:39:42;;;;;;;4.00;1.63;;;13.80;99.90;;;;;;4970713;28;20466;-72
2024/02/09 12:42:09;;;;;;;1.63;1.53;;;13.80;99.90;;;;;;4967971;28;20473;-72
2024/02/09 12:44:41;;;;;;;2.40;2.00;;;13.80;99.90;;;;;;4972367;28;20463;-71
2024/02/09 12:47:08;;;;;;;1.67;1.47;;;13.90;99.90;;;;;;4971300;28;20486;-71
2024/02/09 12:49:34;;;;;;;7.23;1.43;;;14.00;99.90;;;;;;4977842;28;20466;-72
2024/02/09 12:52:01;;;;;;;1.50;1.40;;;14.10;99.90;;;;;;4976040;28;20948;-71
2024/02/09 12:54:29;;;;;;;3.63;2.50;;;14.20;99.90;;;;;;4969674;28;20474;-72
2024/02/09 12:56:57;;;;;;;2.37;2.20;;;14.20;99.90;;;;;;4980282;28;20480;-72
2024/02/09 12:59:24;;;;;;;3.07;1.80;;;14.10;99.90;;;;;;4983249;28;20473;-71
2024/02/09 13:01:51;;;;;;;5.63;1.80;;;14.20;99.90;;;;;;4976089;28;20466;-73
2024/02/09 13:04:17;;;;;;;6.83;2.70;;;14.10;99.90;;;;;;4974773;28;20797;-72
2024/02/09 13:06:44;;;;;;;3.93;3.27;;;14.20;99.90;;;;;;4979293;28;20486;-71
2024/02/09 13:09:11;;;;;;;3.30;1.50;;;14.20;99.90;;;;;;4977218;28;20454;-72
2024/02/09 13:11:39;;;;;;;3.00;2.70;;;14.10;99.90;;;;;;4971309;28;20973;-72
2024/02/09 13:14:06;;;;;;;8.57;2.43;;;14.10;99.90;;;;;;4978733;28;20470;-71
2024/02/09 13:16:32;;;;;;;4.00;1.90;;;14.00;99.90;;;;;;4971864;28;20992;-72
2024/02/09 13:18:59;;;;;;;2.77;1.67;;;14.10;99.90;;;;;;4980831;28;20482;-72
2024/02/09 13:21:26;;;;;;;1.60;1.33;;;14.20;99.90;;;;;;4971801;28;20541;-72
2024/02/09 13:23:53;;;;;;;2.83;1.60;;;14.10;99.90;;;;;;4964154;28;20474;-73
2024/02/09 13:26:20;;;;;;;1.87;1.43;;;14.10;99.90;;;;;;4974852;28;21215;-72
2024/02/09 13:28:48;;;;;;;2.07;1.80;;;14.10;99.90;;;;;;4972316;28;20479;-72
2024/02/09 13:31:15;;;;;;;2.33;1.30;;;14.20;99.90;;;;;;4964643;28;20474;-72
2024/02/09 13:33:44;;;;;;;2.07;1.40;;;14.20;99.90;;;;;;4976147;28;20459;-72
2024/02/09 13:36:11;;;;;;;2.13;1.60;;;14.10;99.90;;;;;;4980063;28;20582;-72
2024/02/09 13:38:38;;;;;;;5.97;1.67;;;14.10;99.90;;;;;;4975657;28;20462;-72
2024/02/09 13:41:05;;;;;;;1.50;1.40;;;14.10;99.90;;;;;;4976580;28;20479;-72
2024/02/09 13:43:32;;;;;;;2.63;1.80;;;14.00;99.90;;;;;;4974443;28;20851;-72
2024/02/09 13:46:00;;;;;;;2.37;1.40;;;14.00;99.90;;;;;;4975842;28;20497;-72
2024/02/09 13:48:27;;;;;;;3.27;2.47;;;14.10;99.90;;;;;;4980368;28;20466;-71
2024/02/09 13:50:54;;;;;;;4.60;1.90;;;14.10;99.90;;;;;;4949808;28;20481;-71
2024/02/09 13:53:21;;;;;;;7.20;2.10;;;14.10;99.90;;;;;;4971852;28;20481;-71
2024/02/09 13:55:47;;;;;;;3.17;1.83;;;14.10;99.90;;;;;;4964574;28;20493;-72
2024/02/09 13:58:14;;;;;;;2.20;1.80;;;13.90;99.90;;;;;;4978233;28;20486;-72
2024/02/09 14:00:42;;;;;;;2.83;1.33;;;13.90;99.90;;;;;;4971134;28;20542;-72
2024/02/09 14:03:10;;;;;;;1.97;1.37;;;13.90;99.90;;;;;;4971335;28;20886;-71
2024/02/09 14:05:37;;;;;;;3.10;2.80;;;13.80;99.90;;;;;;4966739;28;20489;-72
2024/02/09 14:08:04;;;;;;;1.50;1.27;;;13.90;99.90;;;;;;4976001;28;20562;-72
2024/02/09 14:10:32;;;;;;;1.70;1.50;;;13.80;99.90;;;;;;4968050;28;20508;-72
2024/02/09 14:12:58;;;;;;;5.27;1.43;;;13.80;99.90;;;;;;4979650;28;20470;-71
2024/02/09 14:15:25;;;;;;;2.23;1.47;;;13.90;99.90;;;;;;4979538;28;20624;-72
2024/02/09 14:18:17;;;;;;;3.23;2.73;;;13.90;99.90;;;;;;5162213;23;20443;-72
2024/02/09 14:20:46;;;;;;;2.53;1.43;;;13.90;99.90;;;;;;4911185;29;20791;-73
2024/02/09 14:23:13;;;;;;;1.53;1.43;;;14.00;99.90;;;;;;4915965;29;20466;-73
2024/02/09 14:25:40;;;;;;;2.33;1.37;;;14.10;99.90;;;;;;4915698;29;20903;-73
2024/02/09 14:28:08;;;;;;;1.93;1.53;;;14.10;99.90;;;;;;4909015;29;20529;-73
2024/02/09 14:30:35;;;;;;;1.50;1.00;;;14.20;99.90;;;;;;4900503;29;20497;-73
2024/02/09 14:33:02;;;;;;;2.70;1.60;;;14.20;99.90;;;;;;4913382;29;20487;-73
2024/02/09 14:35:30;;;;;;;2.70;1.43;;;14.10;99.90;;;;;;4917754;29;20572;-73
2024/02/09 14:37:57;;;;;;;7.43;1.40;;;14.20;99.90;;;;;;4913105;29;20559;-73